Date,TemperatureHighF,TemperatureAvgF,TemperatureLowF,DewpointHighF,DewpointAvgF,DewpointLowF,HumidityHigh,HumidityAvg,HumidityLow,PressureMaxIn,PressureMinIn,WindSpeedMaxMPH,WindSpeedAvgMPH,GustSpeedMaxMPH,PrecipitationSumIn
2013-4-30,64.3,54.7,45.5,34.0,32.2,31.0,60,44,30,30.12,30.08,1,0,6,0.03
2013-5-1,68.5,53.9,38.5,42.0,36.0,27.0,87,56,24,30.26,30.12,5,1,9,0.00
2013-5-2,75.2,56.8,38.7,45.0,40.6,35.0,98,61,27,30.25,30.12,3,0,10,0.00
2013-5-3,65.1,55.2,44.8,44.0,39.6,34.0,88,59,33,30.23,30.13,5,1,12,0.00
2013-5-4,69.7,54.3,39.2,46.0,41.1,36.0,99,66,30,30.17,30.01,5,1,8,0.00
2013-5-5,65.5,51.8,38.7,42.0,40.2,38.0,98,68,38,30.08,29.99,4,0,8,0.00
2013-5-6,70.4,55.4,43.9,53.0,48.3,41.0,93,79,53,30.04,29.92,4,0,8,0.00
2013-5-7,70.7,60.1,51.9,63.0,55.9,51.0,98,87,64,29.95,29.85,4,1,6,0.18
2013-5-8,70.6,62.4,58.0,64.0,58.9,53.0,98,89,67,29.85,29.73,3,0,8,0.60
2013-5-9,71.5,61.5,55.3,58.0,55.9,54.0,98,83,55,29.78,29.71,8,0,9,0.40
2013-5-10,83.4,68.7,54.0,62.0,56.2,51.0,99,69,33,29.81,29.70,8,1,9,0.38
2013-5-11,75.3,65.8,61.3,65.0,62.6,60.0,98,89,68,29.73,29.51,4,0,8,0.43
2013-5-12,64.4,58.5,45.8,60.0,40.6,24.0,95,57,23,29.79,29.50,9,2,16,0.03
2013-5-13,55.8,47.8,39.1,35.0,29.6,21.0,83,53,26,29.93,29.79,7,1,15,0.00
2013-5-14,62.2,49.3,34.4,34.0,30.2,24.0,92,53,25,29.98,29.85,9,1,12,0.00
2013-5-15,72.7,35.8,-40.9,59.0,22.6,-57.0,81,59,35,29.88,29.52,4,0,10,0.00
2013-5-16,69.5,7.6,-40.8,62.0,-2.6,-99.9,98,64,25,29.68,29.53,4,-10,11,0.05
2013-5-17,75.1,60.9,-40.9,55.0,40.2,-99.9,100,51,27,29.99,29.68,5,1,9,0.00
2013-5-18,67.4,59.7,54.8,56.0,51.7,46.0,96,76,54,30.09,30.00,2,0,6,0.06
2013-5-19,61.3,58.7,56.1,60.0,58.1,55.0,99,98,96,30.07,29.96,1,0,4,0.29
2013-5-20,77.2,44.2,-39.7,69.0,40.2,-53.0,100,85,46,29.96,29.79,4,0,6,0.01
2013-5-27,67.1,-19.7,-90.0,46.0,-49.4,-99.9,66,22,1,30.07,29.97,5,-16,9,0.00
2013-5-28,64.7,59.4,51.2,63.0,56.0,46.0,99,88,67,30.03,29.91,1,0,3,0.24
2013-5-29,147.5,12.5,-90.0,71.0,-9.8,-99.9,100,55,1,29.92,29.84,6,1,10,0.00
2013-5-30,103.7,-30.6,-90.0,22.0,-56.5,-99.9,72,36,1,29.98,29.90,4,1,8,0.00
2013-5-31,141.3,-22.2,-90.0,22.0,-53.1,-99.9,78,34,1,29.97,29.84,5,1,9,0.00
2013-6-1,12.0,-36.9,-40.6,-46.0,-62.5,-99.9,72,38,1,29.86,29.74,6,1,12,0.00
2013-6-2,-38.8,-39.2,-39.7,-51.0,-55.6,-99.9,51,41,31,29.67,29.63,7,2,12,0.00
2013-6-6,76.8,64.1,54.4,61.0,55.2,-99.9,97,77,41,29.94,29.77,1,-10,5,0.07
2013-6-7,65.9,62.9,60.4,65.0,62.4,59.0,99,98,95,29.76,29.41,3,0,5,2.94
2013-6-8,78.5,68.5,59.1,66.0,62.3,58.0,99,82,57,29.81,29.40,6,0,8,0.05
2013-6-10,72.0,71.7,71.2,71.0,63.8,-99.9,98,93,96,29.66,29.58,4,0,7,0.22
2013-6-11,79.8,21.0,-40.5,70.0,12.9,-56.0,99,69,36,29.59,29.49,7,1,15,0.05
2013-6-12,-39.3,-40.3,-40.9,-47.0,-54.6,-66.0,69,45,19,29.68,29.59,4,1,11,0.00
2013-7-17,83.6,76.3,78.5,71.0,59.8,-99.9,78,64,52,29.93,29.91,0,-53,0,0.01
2013-7-18,97.5,86.7,76.6,78.0,73.7,70.0,83,67,47,29.92,29.77,4,0,8,0.00
2013-7-19,95.9,87.8,80.9,80.0,77.1,75.0,90,72,54,29.80,29.62,5,1,9,0.00
2013-7-20,92.6,83.9,77.1,75.0,71.2,67.0,77,66,52,29.65,29.56,9,1,14,0.00
2013-7-21,90.5,79.2,72.9,75.0,71.0,69.0,88,77,53,29.74,29.64,2,0,4,0.00
2013-7-22,86.5,76.1,71.9,77.0,72.4,69.0,97,88,69,29.74,29.57,3,0,4,0.70
2013-7-23,87.6,76.7,70.3,77.0,72.3,69.0,98,87,61,29.57,29.39,3,0,6,0.72
2013-7-24,80.6,74.2,65.6,70.0,65.2,54.0,91,74,54,29.73,29.44,4,0,7,0.00
2013-7-25,72.7,65.5,60.1,61.0,56.8,53.0,81,74,62,29.84,29.73,4,0,4,0.00
2013-7-26,83.2,71.3,61.1,63.0,59.4,57.0,92,69,41,29.86,29.81,6,0,7,0.00
2013-7-27,86.6,74.8,62.9,69.0,63.7,58.0,98,72,45,29.86,29.73,4,0,7,0.00
2013-7-28,68.5,67.5,66.5,67.0,51.2,-99.9,97,87,95,29.77,29.74,0,0,2,0.00
2013-7-29,83.6,72.9,63.8,68.0,61.9,53.0,99,73,35,29.92,29.75,3,0,9,0.04
2013-7-30,82.9,70.2,59.2,61.0,58.4,56.0,92,69,44,30.00,29.92,3,0,12,0.00
2013-7-31,82.8,71.7,58.9,66.0,61.3,58.0,99,73,46,29.96,29.83,2,0,5,0.00
2013-8-1,73.6,70.3,66.6,71.0,66.3,62.0,98,87,74,29.83,29.62,3,0,5,0.73
2013-8-2,85.5,75.2,66.9,69.0,65.8,60.0,99,75,44,29.74,29.62,5,0,10,0.00
2013-8-3,78.5,71.2,66.0,68.0,65.2,61.0,94,82,67,29.74,29.68,5,0,7,0.02
2013-8-4,79.8,70.1,60.8,65.0,59.3,53.0,99,72,40,29.80,29.67,4,1,8,0.00
2013-8-5,79.7,66.9,55.5,56.0,53.9,50.0,94,66,37,29.89,29.80,3,0,6,0.00
2013-8-6,79.6,67.0,55.7,65.0,59.2,55.0,98,78,48,29.91,29.84,3,0,8,0.00
2013-8-7,75.6,70.9,66.1,70.0,67.3,64.0,96,88,75,29.92,29.84,4,0,7,0.01
2013-8-8,88.2,77.1,69.5,77.0,72.1,68.0,98,85,61,29.86,29.78,3,0,8,0.22
2013-8-9,85.3,79.5,75.9,78.0,74.5,72.0,92,85,72,29.80,29.62,5,1,13,0.00
2013-8-10,85.3,76.4,69.7,74.0,67.1,63.0,97,75,50,29.85,29.68,4,0,12,0.00
2013-8-11,87.0,73.8,60.8,69.0,62.4,56.0,97,71,42,29.93,29.81,2,0,9,0.00
2013-8-12,85.7,76.0,69.2,73.0,68.5,64.0,98,79,50,29.83,29.72,2,0,6,0.00
2013-8-13,82.6,73.7,65.1,71.0,69.2,64.0,98,87,61,29.72,29.52,4,0,10,2.67
2013-8-14,74.5,66.4,56.5,69.0,54.1,49.0,89,66,46,29.87,29.57,11,1,13,0.00
2013-8-15,78.7,63.8,51.1,55.0,52.3,48.0,98,71,35,29.97,29.87,2,0,7,0.00
2013-8-16,81.7,66.8,53.2,60.0,54.9,51.0,99,70,37,30.00,29.93,3,0,4,0.00
2013-8-17,83.1,68.9,54.9,62.0,57.1,54.0,99,70,37,30.07,30.01,2,0,5,0.00
2013-8-18,75.7,67.6,62.3,64.0,61.3,57.0,97,81,53,30.05,29.94,1,0,3,0.05
2013-8-19,77.4,69.2,61.7,67.0,63.4,60.0,97,82,64,29.95,29.86,3,0,6,0.00
2013-8-20,88.9,74.5,63.3,70.0,65.9,63.0,99,77,44,29.95,29.87,2,0,7,0.00
2013-8-21,89.5,76.9,64.7,72.0,66.4,60.0,99,73,38,29.99,29.86,3,0,6,0.00
2013-8-22,83.3,76.5,72.3,74.0,71.9,69.0,97,86,68,29.88,29.70,4,0,7,0.35
2013-8-23,76.5,71.0,63.4,69.0,64.3,59.0,95,80,57,29.89,29.71,1,0,4,0.00
2013-8-24,82.1,69.0,58.7,60.0,55.5,49.0,91,66,33,30.15,29.90,5,0,6,0.00
2013-8-25,83.3,68.3,53.1,61.0,55.3,51.0,99,68,34,30.21,30.05,4,0,9,0.00
2013-8-26,86.9,74.4,64.5,68.0,62.5,57.0,80,67,50,30.06,29.74,6,1,10,0.00
2013-8-27,88.5,78.1,71.1,71.0,67.5,66.0,90,71,50,29.73,29.66,4,0,8,0.00
2013-8-28,74.7,72.0,68.2,73.0,70.9,67.0,99,96,89,29.70,29.63,1,0,4,0.70
2013-8-29,81.7,73.6,69.9,73.0,69.8,65.0,99,88,68,29.82,29.67,1,0,5,0.00
2013-8-30,83.8,74.8,67.0,73.0,69.3,65.0,96,83,69,29.83,29.67,4,1,7,0.00
2013-8-31,87.2,78.4,71.2,75.0,72.2,69.0,95,82,66,29.69,29.59,5,1,8,0.00
2013-9-1,91.9,79.3,72.4,76.0,72.4,71.0,98,81,53,29.65,29.57,4,0,6,0.09
2013-9-2,83.6,75.5,72.0,75.0,72.9,71.0,99,92,69,29.59,29.51,2,0,4,0.30
2013-9-3,82.4,73.9,65.9,72.0,65.0,57.0,98,76,44,29.71,29.51,4,0,12,0.00
2013-9-4,81.7,69.4,58.3,60.0,58.0,56.0,94,69,43,29.84,29.71,7,1,8,0.00
2013-9-5,78.3,67.8,56.1,63.0,56.0,46.0,87,68,38,29.94,29.77,4,0,8,0.00
2013-9-6,73.1,60.4,50.1,49.0,46.1,41.0,88,63,33,30.06,29.95,3,0,5,0.00
2013-9-7,80.8,63.3,46.8,60.0,51.3,46.0,99,70,35,29.95,29.72,3,0,7,0.00
2013-9-8,80.4,70.5,64.2,67.0,62.8,60.0,89,77,60,29.72,29.66,4,0,10,0.00
2013-9-11,81.2,74.2,78.5,73.0,58.9,-99.9,79,70,74,29.83,0.00,1,-76,4,0.00
2013-9-12,88.0,77.4,69.4,76.0,71.7,68.0,97,83,62,29.80,29.51,6,1,12,0.31
2013-9-13,77.4,67.8,58.1,69.0,60.6,51.0,99,79,51,29.69,29.46,5,0,10,0.40
2013-9-14,65.6,56.3,46.6,50.0,47.9,45.0,95,74,54,29.96,29.70,4,0,9,0.00
2013-9-15,74.9,58.3,43.6,56.0,49.3,43.0,99,76,42,30.04,29.90,4,0,7,0.00
2013-9-16,71.1,62.4,56.3,61.0,56.2,50.0,96,81,58,30.04,29.84,4,0,6,0.10
2013-9-17,67.8,55.2,44.8,49.0,43.5,40.0,92,67,39,30.24,30.05,4,0,7,0.10
2013-9-18,74.0,55.0,40.5,49.0,44.7,40.0,99,73,34,30.16,30.00,2,0,8,0.00
2013-9-19,78.4,60.0,45.3,57.0,51.2,45.0,99,77,38,30.01,29.88,3,0,6,0.00
2013-9-20,81.8,65.1,50.9,62.0,56.5,50.0,99,77,42,29.89,29.78,1,0,5,0.00
2013-9-21,81.1,67.2,52.2,67.0,59.0,52.0,99,78,42,29.81,29.48,4,1,10,0.66
2013-9-22,68.7,61.1,51.4,62.0,52.3,45.0,98,75,48,29.74,29.48,6,1,11,1.03
2013-9-23,67.2,55.2,44.5,48.0,43.9,41.0,91,67,45,29.86,29.73,4,1,9,0.00
2013-9-24,73.7,56.1,40.8,52.0,45.9,40.0,97,71,41,29.89,29.71,5,0,8,0.00
2013-9-25,74.6,57.5,43.5,52.0,47.4,43.0,98,73,37,29.78,29.68,5,0,5,0.00
2013-9-26,73.8,59.1,47.8,59.0,53.5,47.0,99,84,53,29.89,29.74,3,0,4,0.00
2013-9-27,71.8,61.0,53.7,58.0,54.3,51.0,98,80,52,30.06,29.89,1,0,5,0.00
2013-9-28,74.9,61.8,51.4,57.0,52.9,49.0,97,75,46,30.12,30.03,2,0,5,0.00
2013-9-29,73.5,58.7,47.8,59.0,52.3,47.0,99,82,52,30.03,29.88,2,0,9,0.00
2013-9-30,74.4,58.2,46.1,55.0,51.0,46.0,99,80,47,29.89,29.79,2,0,5,0.00
2013-10-1,82.3,63.0,50.4,63.0,55.1,-99.9,99,80,47,29.84,29.73,2,-10,6,0.00
2013-10-2,84.8,69.2,56.3,64.0,60.7,56.0,98,77,46,29.83,29.75,4,0,9,0.00
2013-10-3,82.9,68.2,56.2,65.0,59.1,-99.9,99,77,46,29.93,29.82,3,-10,5,0.00
2013-10-4,87.3,71.9,61.3,67.0,64.5,61.0,99,80,47,29.87,29.78,3,0,8,0.00
2013-10-5,87.2,73.5,63.9,70.0,66.7,63.0,99,81,54,29.88,29.80,2,0,4,0.00
2013-10-6,81.2,69.3,65.0,72.0,67.0,64.0,98,92,71,29.87,29.77,2,0,4,1.11
2013-10-7,75.7,65.7,54.8,74.0,64.0,50.0,98,94,76,29.81,29.56,6,1,15,1.01
2013-10-8,67.1,55.3,46.7,51.0,48.5,46.0,98,80,51,30.11,29.81,5,0,8,1.01
2013-10-9,61.0,54.2,46.9,52.0,48.6,44.0,94,81,67,30.17,30.05,3,0,7,0.00
2013-10-10,59.2,55.5,51.2,57.0,53.5,49.0,97,93,81,30.05,29.82,2,0,9,0.16
2013-10-11,64.3,60.0,57.6,62.0,57.4,-99.9,98,93,86,29.86,29.77,3,-10,7,0.59
2013-10-12,71.6,64.0,58.6,60.0,54.5,46.0,90,72,51,30.02,29.84,5,1,10,0.59
2013-10-13,68.3,59.9,48.4,56.0,51.7,47.0,97,75,52,30.17,30.02,5,1,10,0.00
2013-10-14,70.3,55.5,45.6,55.0,50.1,45.0,99,84,51,30.16,30.04,1,0,4,0.00
2013-10-15,74.2,57.1,44.7,56.0,48.6,44.0,99,77,38,30.06,29.91,1,0,5,0.00
2013-10-16,68.8,59.7,50.4,60.0,56.2,49.0,97,88,73,29.91,29.72,2,0,3,0.00
2013-10-17,73.0,65.9,60.8,64.0,62.1,60.0,96,88,72,29.72,29.51,3,0,12,0.04
2013-10-18,66.0,57.6,44.3,63.0,46.7,42.0,94,69,47,29.80,29.52,5,1,12,0.05
2013-10-19,64.5,53.0,41.7,56.0,47.1,41.0,99,83,53,29.80,29.58,2,0,6,0.06
2013-10-20,63.4,51.6,41.4,53.0,41.3,37.0,96,71,38,29.88,29.60,4,1,12,0.06
2013-10-21,68.5,51.7,37.6,48.0,40.4,37.0,99,71,34,29.96,29.78,4,0,9,0.00
2013-10-22,64.5,54.6,44.7,52.0,46.6,33.0,95,75,52,29.78,29.59,3,0,8,0.00
2013-10-23,58.5,47.5,40.7,43.0,37.2,34.0,84,69,53,29.63,29.43,0,0,0,0.00
2013-10-24,51.8,42.9,36.8,37.0,32.1,27.0,89,68,42,29.86,29.60,5,1,12,0.00
2013-10-25,55.9,43.1,34.7,37.0,32.6,30.0,84,68,41,30.05,29.86,6,1,13,0.00
2013-10-26,57.1,45.0,33.4,35.0,32.0,30.0,89,63,38,30.06,29.71,6,1,17,0.00
2013-10-27,58.3,48.4,38.3,36.0,33.2,31.0,80,57,40,29.94,29.69,7,1,11,0.00
2013-10-28,63.5,45.2,31.7,39.0,35.6,31.0,97,73,39,30.10,29.94,5,0,7,0.00
2013-10-29,62.6,46.8,35.7,44.0,38.7,33.0,96,76,44,30.20,30.11,4,0,4,0.00
2013-10-30,59.9,49.8,40.1,53.0,47.1,39.0,97,90,78,30.14,29.98,2,0,8,0.00
2013-10-31,68.5,59.8,47.2,61.0,56.2,47.0,99,88,73,30.02,29.61,4,1,10,0.02
2013-11-1,70.3,65.8,59.5,67.0,62.8,59.0,98,90,82,29.59,29.38,7,1,20,0.06
2013-11-25,32.5,32.0,31.8,18.0,17.2,16.0,57,55,51,30.14,30.12,1,0,5,0.03
2013-11-26,50.7,35.9,32.0,51.0,28.1,19.0,99,75,50,30.13,29.46,5,1,9,0.78
2013-11-27,62.0,44.4,34.7,61.0,42.4,23.0,99,92,62,29.50,29.21,11,4,17,2.34
2013-11-28,35.4,31.0,26.7,20.0,17.6,15.0,73,59,45,30.27,30.08,14,2,16,0.00
2013-11-29,39.4,30.1,20.7,23.0,19.7,18.0,94,67,45,30.52,30.26,5,1,10,0.00
2013-11-30,39.4,30.3,19.3,28.0,21.9,15.0,87,72,62,30.52,30.17,3,0,6,0.00
2013-12-1,47.9,38.0,26.1,33.0,28.9,25.0,95,72,49,30.16,29.82,3,0,7,0.00
2013-12-2,50.9,41.4,36.9,35.0,32.1,30.0,83,70,52,29.82,29.68,2,0,3,0.00
2013-12-3,53.1,42.5,34.8,40.0,35.5,33.0,92,77,50,29.81,29.68,3,0,6,0.00
2013-12-4,52.6,44.2,32.8,44.0,38.5,31.0,95,81,65,29.91,29.80,1,0,3,0.00
2013-12-5,59.6,53.3,47.6,59.0,52.2,45.0,99,96,86,29.90,29.73,3,0,7,0.00
2013-12-6,61.6,47.7,36.5,61.0,46.4,36.0,99,95,84,29.95,29.67,5,1,11,0.71
2013-12-7,38.8,34.2,27.2,36.0,29.9,23.0,97,85,65,30.31,29.88,10,2,15,0.08
2013-12-8,29.6,27.2,25.0,29.0,22.7,18.0,96,83,67,30.39,30.12,4,0,6,0.00
2013-12-9,35.7,33.6,29.7,35.0,33.0,29.0,98,97,96,30.12,29.79,5,0,7,0.13
2013-12-10,33.7,30.5,22.0,33.0,29.2,20.0,98,95,88,29.96,29.72,5,0,7,0.00
2013-12-11,33.0,24.2,14.4,22.0,18.7,13.0,97,81,59,30.16,29.97,3,0,10,0.00
2013-12-12,27.6,22.3,17.8,20.0,13.1,7.0,94,69,43,30.18,29.98,6,1,14,0.00
2013-12-13,35.9,28.3,19.3,21.0,14.0,7.0,80,56,43,30.13,29.95,10,2,15,0.00
2013-12-14,30.6,28.4,26.5,30.0,24.6,21.0,97,86,72,30.22,29.50,7,2,12,0.00
2013-12-15,39.6,33.3,28.0,35.0,28.8,22.0,97,84,64,29.68,29.36,11,2,16,0.02
2013-12-16,31.5,25.8,19.3,24.0,13.2,9.0,77,60,42,30.03,29.67,10,2,16,0.00
2013-12-17,30.7,25.5,21.1,28.0,21.2,13.0,93,84,60,30.00,29.74,4,1,5,0.00
2013-12-18,37.7,28.0,19.5,24.0,20.5,18.0,94,75,52,30.00,29.75,8,1,15,0.02
2013-12-19,48.3,35.4,20.4,32.0,26.3,18.0,95,72,48,30.00,29.85,5,0,9,0.18
2013-12-20,53.3,44.0,32.9,46.0,34.4,30.0,91,71,48,29.89,29.78,4,0,8,0.00
2013-12-21,65.5,55.4,43.9,57.0,50.3,43.0,97,83,66,29.81,29.70,4,1,11,0.00
2013-12-22,66.8,63.7,60.4,63.0,60.2,57.0,94,88,82,29.76,29.61,10,2,19,0.18
2013-12-23,60.7,54.4,41.1,60.0,52.0,32.0,98,91,71,29.97,29.71,8,2,12,0.59
2013-12-24,40.8,33.7,25.6,33.0,22.2,13.0,77,63,52,30.19,29.93,9,3,18,0.00
2013-12-25,29.4,24.7,18.3,17.0,10.8,7.0,68,56,46,30.33,30.19,8,1,15,0.00
2013-12-26,39.2,28.5,20.1,30.0,22.9,17.0,91,80,64,30.20,29.98,7,1,13,0.00
2013-12-27,45.0,31.1,22.1,24.0,21.5,20.0,93,71,38,30.18,30.08,7,1,12,0.00
2013-12-28,57.3,42.2,25.2,29.0,26.2,22.0,90,57,32,30.09,29.89,8,1,15,0.00
2013-12-29,45.0,42.4,40.1,45.0,36.6,28.0,98,82,53,29.89,29.25,5,1,11,1.06
2013-12-30,43.8,37.1,26.1,40.0,29.8,14.0,98,76,59,29.97,29.55,8,2,17,0.00
2013-12-31,35.0,27.6,20.6,28.0,16.5,12.0,80,64,50,30.12,29.87,7,1,14,0.00
2014-1-1,38.3,29.8,21.0,23.0,18.9,12.0,77,64,52,30.21,30.00,3,0,6,0.00
2014-1-2,32.0,27.6,19.5,26.0,23.5,18.0,94,85,70,29.99,29.44,6,2,12,0.00